Time;durP1;ratioP1;P1;durP2;ratioP2;P2;SDS_P1;SDS_P2;PMS_P1;PMS_P2;Temp;Humidity;BMP_temperature;BMP_pressure;BME280_temperature;BME280_humidity;BME280_pressure;Samples;Min_cycle;Max_cycle;Signal;HPM_P1;HPM_P2
2023/12/24 00:01:13;;;;;;;489.02;231.75;;;5.50;99.90;;;;;;4996366;28;20109;-56
2023/12/24 00:03:39;;;;;;;493.83;224.90;;;5.50;99.90;;;;;;4996498;28;20032;-56
2023/12/24 00:06:06;;;;;;;500.50;236.55;;;5.50;99.90;;;;;;4996233;28;20106;-56
2023/12/24 00:08:32;;;;;;;447.17;205.38;;;5.40;99.90;;;;;;4996346;28;20030;-56
2023/12/24 00:10:58;;;;;;;455.15;210.20;;;5.40;99.90;;;;;;4996279;28;20030;-56
2023/12/24 00:13:26;;;;;;;490.25;222.43;;;5.50;99.90;;;;;;4996255;28;20495;-56
2023/12/24 00:15:52;;;;;;;426.63;198.80;;;5.60;99.90;;;;;;4996022;28;20034;-56
2023/12/24 00:18:18;;;;;;;403.38;189.85;;;5.70;99.90;;;;;;4995322;28;20030;-56
2023/12/24 00:20:44;;;;;;;383.40;183.25;;;5.80;99.90;;;;;;4996280;28;20054;-56
2023/12/24 00:23:11;;;;;;;345.75;168.15;;;5.80;99.90;;;;;;4996119;28;20472;-56
2023/12/24 00:25:38;;;;;;;385.63;176.35;;;5.90;99.90;;;;;;4996115;28;20050;-56
2023/12/24 00:28:05;;;;;;;352.70;170.45;;;5.90;99.90;;;;;;4996295;28;20034;-56
2023/12/24 00:30:31;;;;;;;270.50;133.23;;;5.90;99.90;;;;;;4996035;28;20034;-56
2023/12/24 00:32:58;;;;;;;244.63;124.10;;;5.80;99.90;;;;;;4996055;28;20496;-56
2023/12/24 00:35:25;;;;;;;256.83;129.70;;;5.70;99.90;;;;;;4996081;28;20022;-56
2023/12/24 00:37:51;;;;;;;258.10;127.43;;;5.60;99.90;;;;;;4995797;28;20502;-56
2023/12/24 00:40:18;;;;;;;263.88;131.40;;;5.60;99.90;;;;;;4995891;28;20058;-56
2023/12/24 00:42:46;;;;;;;253.63;128.70;;;5.50;99.90;;;;;;4996024;28;20031;-56
2023/12/24 00:45:12;;;;;;;255.00;131.15;;;5.50;99.90;;;;;;4994749;28;20030;-56
2023/12/24 00:47:39;;;;;;;258.15;130.70;;;5.60;99.90;;;;;;4994654;28;20062;-56
2023/12/24 00:50:09;;;;;;;264.70;133.95;;;5.60;99.90;;;;;;4994549;28;20038;-56
2023/12/24 00:52:36;;;;;;;252.27;127.82;;;5.60;99.90;;;;;;4994585;28;20084;-56
2023/12/24 00:55:02;;;;;;;255.57;129.15;;;5.60;99.90;;;;;;4999567;28;20557;-56
2023/12/24 00:57:28;;;;;;;260.10;128.57;;;5.60;99.90;;;;;;5015255;28;20026;-56
2023/12/24 00:59:54;;;;;;;247.38;126.13;;;5.50;99.90;;;;;;5015465;28;20026;-56
2023/12/24 01:02:20;;;;;;;253.05;129.40;;;5.50;99.90;;;;;;5015297;28;20482;-56
2023/12/24 01:04:46;;;;;;;244.48;127.57;;;5.60;99.90;;;;;;5014138;28;20425;-56
2023/12/24 01:07:12;;;;;;;247.57;125.57;;;5.70;99.90;;;;;;5013897;28;20038;-56
2023/12/24 01:09:39;;;;;;;247.38;127.95;;;5.60;99.90;;;;;;5014010;28;20049;-56
2023/12/24 01:12:05;;;;;;;245.82;127.70;;;5.70;99.90;;;;;;5014125;28;20034;-56
2023/12/24 01:14:31;;;;;;;247.43;125.38;;;5.60;99.90;;;;;;5014047;28;20038;-56
2023/12/24 01:16:59;;;;;;;259.02;127.05;;;5.60;99.90;;;;;;5014921;28;20347;-56
2023/12/24 01:19:26;;;;;;;268.88;131.25;;;5.60;99.90;;;;;;5014190;28;20606;-56
2023/12/24 01:21:55;;;;;;;260.67;128.05;;;5.70;99.90;;;;;;5015203;28;20060;-56
2023/12/24 01:24:21;;;;;;;258.48;132.38;;;5.70;99.90;;;;;;5015231;28;20014;-56
2023/12/24 01:26:48;;;;;;;250.02;128.48;;;5.60;99.90;;;;;;5013910;28;20057;-56
2023/12/24 01:29:14;;;;;;;264.08;131.10;;;5.70;99.90;;;;;;5015889;28;20029;-56
2023/12/24 01:31:40;;;;;;;283.58;136.55;;;5.70;99.90;;;;;;5017541;28;20092;-56
2023/12/24 01:34:06;;;;;;;272.42;134.82;;;5.60;99.90;;;;;;5018696;28;20094;-56
2023/12/24 01:36:32;;;;;;;244.30;125.70;;;5.70;99.90;;;;;;5017188;28;20029;-56
2023/12/24 01:38:59;;;;;;;255.15;128.40;;;5.60;99.90;;;;;;5017374;28;20026;-56
2023/12/24 01:41:25;;;;;;;253.65;130.00;;;5.60;99.90;;;;;;5017394;28;20030;-56
2023/12/24 01:43:52;;;;;;;294.73;141.13;;;5.60;99.90;;;;;;5018542;28;20057;-56
2023/12/24 01:46:21;;;;;;;328.05;149.68;;;5.70;99.90;;;;;;5017218;28;20030;-56
2023/12/24 01:48:50;;;;;;;274.15;136.65;;;5.70;99.90;;;;;;5018486;28;20038;-56
2023/12/24 01:51:21;;;;;;;274.10;133.05;;;5.70;99.90;;;;;;5017075;28;20037;-56
2023/12/24 01:53:50;;;;;;;268.25;132.93;;;5.70;99.90;;;;;;5018474;28;20035;-56
2023/12/24 01:56:17;;;;;;;265.90;132.68;;;5.60;99.90;;;;;;5003051;28;20026;-56
2023/12/24 01:58:43;;;;;;;268.90;130.32;;;5.60;99.90;;;;;;4997355;28;20034;-56
2023/12/24 02:01:09;;;;;;;281.92;140.23;;;5.60;99.90;;;;;;4997341;28;20030;-56
2023/12/24 02:03:36;;;;;;;278.05;138.40;;;5.50;99.90;;;;;;4997268;28;20026;-56
2023/12/24 02:06:03;;;;;;;282.42;137.80;;;5.40;99.90;;;;;;4997099;28;20048;-56
2023/12/24 02:08:30;;;;;;;271.08;139.20;;;5.40;99.90;;;;;;4997184;28;20030;-56
2023/12/24 02:10:56;;;;;;;268.02;136.98;;;5.40;99.90;;;;;;4998505;28;20368;-56
2023/12/24 02:13:22;;;;;;;263.85;136.32;;;5.30;99.90;;;;;;4997112;28;20043;-56
2023/12/24 02:15:52;;;;;;;271.98;133.93;;;5.30;99.90;;;;;;4998146;28;20113;-56
2023/12/24 02:18:19;;;;;;;277.45;136.82;;;5.30;99.90;;;;;;4998423;28;20038;-56
2023/12/24 02:20:46;;;;;;;235.65;119.13;;;5.30;99.90;;;;;;4998541;28;20593;-56
2023/12/24 02:23:12;;;;;;;268.13;140.48;;;5.30;99.90;;;;;;4997014;28;20034;-56
2023/12/24 02:25:38;;;;;;;275.73;137.07;;;5.30;99.90;;;;;;4998172;28;20492;-56
2023/12/24 02:28:25;;;;;;;278.92;138.95;;;5.40;99.90;;;;;;4996864;28;20027;-56
2023/12/24 02:30:56;;;;;;;282.30;141.38;;;5.20;99.90;;;;;;4996789;28;20038;-56
2023/12/24 02:33:24;;;;;;;284.00;143.90;;;5.10;99.90;;;;;;4998040;28;20153;-56
2023/12/24 02:35:52;;;;;;;275.15;138.90;;;5.00;99.90;;;;;;4997984;28;20026;-56
2023/12/24 02:38:18;;;;;;;275.70;139.85;;;5.10;99.90;;;;;;4994558;28;20132;-56
2023/12/24 02:40:44;;;;;;;271.63;135.45;;;5.20;99.90;;;;;;4996907;28;20114;-56
2023/12/24 02:43:09;;;;;;;261.38;129.65;;;5.20;99.90;;;;;;4996550;28;20031;-56
2023/12/24 02:45:37;;;;;;;263.17;134.13;;;5.20;99.90;;;;;;4997762;28;20026;-56
2023/12/24 02:48:04;;;;;;;255.77;128.43;;;5.10;99.90;;;;;;4996495;28;20058;-56
2023/12/24 02:50:29;;;;;;;266.30;134.55;;;5.20;99.90;;;;;;4996319;28;20026;-56
2023/12/24 02:52:55;;;;;;;269.25;135.00;;;5.10;99.90;;;;;;4996385;28;20038;-56
2023/12/24 02:55:22;;;;;;;277.90;137.02;;;5.10;99.90;;;;;;4997315;28;20492;-56
2023/12/24 02:57:48;;;;;;;267.45;132.27;;;5.10;99.90;;;;;;4997533;28;20049;-56
2023/12/24 03:00:14;;;;;;;247.63;129.27;;;5.10;99.90;;;;;;4997373;28;20134;-56
2023/12/24 03:02:40;;;;;;;251.20;131.65;;;5.10;99.90;;;;;;4997522;28;20177;-56
2023/12/24 03:05:06;;;;;;;244.95;124.53;;;5.10;99.90;;;;;;4996063;28;20027;-56
2023/12/24 03:07:32;;;;;;;254.20;127.50;;;5.20;99.90;;;;;;4995938;28;20051;-56
2023/12/24 03:09:58;;;;;;;238.07;121.78;;;5.10;99.90;;;;;;4997276;28;20023;-56
2023/12/24 03:12:24;;;;;;;217.95;115.40;;;5.00;99.90;;;;;;4996035;28;20038;-56
2023/12/24 03:14:50;;;;;;;213.05;112.93;;;5.00;99.90;;;;;;4997537;28;20038;-56
2023/12/24 03:17:15;;;;;;;196.00;103.07;;;5.00;99.90;;;;;;4997025;28;20093;-56
2023/12/24 03:19:41;;;;;;;211.77;110.00;;;5.00;99.90;;;;;;4995900;28;20034;-56
2023/12/24 03:22:08;;;;;;;225.27;115.22;;;5.00;99.90;;;;;;4995938;28;20034;-56
2023/12/24 03:24:34;;;;;;;236.02;120.53;;;5.10;99.90;;;;;;4996991;28;20014;-56
2023/12/24 03:26:59;;;;;;;248.45;121.05;;;5.20;99.90;;;;;;4995786;28;20031;-56
2023/12/24 03:29:25;;;;;;;237.98;122.40;;;5.10;99.90;;;;;;4997063;28;20034;-56
2023/12/24 03:31:51;;;;;;;254.82;128.63;;;5.10;99.90;;;;;;4995736;28;20038;-56
2023/12/24 03:34:17;;;;;;;256.40;129.02;;;5.10;99.90;;;;;;4995583;28;20030;-56
2023/12/24 03:36:43;;;;;;;235.93;123.97;;;5.20;99.90;;;;;;4995489;28;20483;-56
2023/12/24 03:39:09;;;;;;;258.63;130.57;;;5.10;99.90;;;;;;4995446;28;20117;-56
2023/12/24 03:41:35;;;;;;;245.32;123.70;;;5.10;99.90;;;;;;4996731;28;20361;-56
2023/12/24 03:44:03;;;;;;;236.90;121.13;;;5.00;99.90;;;;;;4995516;28;20029;-56
2023/12/24 03:46:29;;;;;;;236.43;123.40;;;5.00;99.90;;;;;;4996670;28;20073;-56
2023/12/24 03:48:55;;;;;;;235.98;117.78;;;5.10;99.90;;;;;;4995336;28;20062;-56
2023/12/24 03:51:23;;;;;;;243.90;121.70;;;5.00;99.90;;;;;;4996709;28;20030;-56
2023/12/24 03:53:49;;;;;;;231.95;119.55;;;5.00;99.90;;;;;;4995092;28;20388;-56
2023/12/24 03:56:15;;;;;;;232.98;118.32;;;5.00;99.90;;;;;;5011488;28;20029;-56
2023/12/24 03:58:41;;;;;;;247.52;124.88;;;5.10;99.90;;;;;;5014829;28;20064;-56
2023/12/24 04:01:08;;;;;;;234.20;122.18;;;5.10;99.90;;;;;;5014858;28;20038;-56
2023/12/24 04:03:35;;;;;;;234.48;121.45;;;5.10;99.90;;;;;;5014668;28;20468;-56
2023/12/24 04:06:01;;;;;;;233.52;123.43;;;5.30;99.90;;;;;;5014519;28;20026;-56
2023/12/24 04:08:27;;;;;;;249.07;124.78;;;5.40;99.90;;;;;;5014601;28;20061;-56
2023/12/24 04:10:53;;;;;;;245.13;124.65;;;5.30;99.90;;;;;;5014701;28;20103;-56
2023/12/24 04:13:19;;;;;;;226.40;118.18;;;5.30;99.90;;;;;;5014652;28;20053;-56
2023/12/24 04:15:45;;;;;;;245.20;124.03;;;5.40;99.90;;;;;;5014463;28;20438;-56
2023/12/24 04:18:10;;;;;;;260.42;130.25;;;5.40;99.90;;;;;;5013806;28;20046;-56
2023/12/24 04:20:38;;;;;;;257.70;130.30;;;5.40;99.90;;;;;;5014578;28;20422;-56
2023/12/24 04:23:04;;;;;;;256.65;134.25;;;5.50;99.90;;;;;;5014404;28;20049;-56
2023/12/24 04:25:30;;;;;;;265.95;132.27;;;5.50;99.90;;;;;;5014506;28;20436;-56
2023/12/24 04:27:56;;;;;;;279.52;131.80;;;5.60;99.90;;;;;;5014654;28;20033;-56
2023/12/24 04:30:22;;;;;;;271.60;130.23;;;5.70;99.90;;;;;;5015735;28;20034;-56
2023/12/24 04:32:48;;;;;;;264.20;128.70;;;5.70;99.90;;;;;;5014364;28;20072;-56
2023/12/24 04:35:14;;;;;;;263.58;128.65;;;5.70;99.90;;;;;;5014405;28;20038;-56
2023/12/24 04:37:39;;;;;;;247.65;122.07;;;5.60;99.90;;;;;;5015474;28;20030;-56
2023/12/24 04:40:06;;;;;;;237.65;122.57;;;5.50;99.90;;;;;;5015451;28;20037;-56
2023/12/24 04:42:32;;;;;;;237.65;120.75;;;5.60;99.90;;;;;;5014348;28;20399;-56
2023/12/24 04:44:59;;;;;;;234.40;122.40;;;5.60;99.90;;;;;;5014279;28;20471;-56
2023/12/24 04:47:25;;;;;;;232.02;122.53;;;5.60;99.90;;;;;;5014116;28;20030;-56
2023/12/24 04:49:51;;;;;;;238.55;117.95;;;5.40;99.90;;;;;;5014215;28;20476;-56
2023/12/24 04:52:17;;;;;;;236.23;118.55;;;5.40;99.90;;;;;;5015504;28;20113;-56
2023/12/24 04:54:42;;;;;;;228.80;120.18;;;5.40;99.90;;;;;;5011704;28;20057;-56
2023/12/24 04:57:09;;;;;;;246.00;119.07;;;5.40;99.90;;;;;;4994829;28;20030;-56
2023/12/24 04:59:35;;;;;;;218.82;109.90;;;5.40;99.90;;;;;;4994887;28;20034;-56
2023/12/24 05:02:00;;;;;;;226.23;113.65;;;5.40;99.90;;;;;;4994543;28;20034;-56
2023/12/24 05:04:28;;;;;;;213.45;109.88;;;5.30;99.90;;;;;;4995488;28;20041;-56
2023/12/24 05:06:55;;;;;;;216.57;110.05;;;5.20;99.90;;;;;;4998241;28;20042;-56
2023/12/24 05:09:23;;;;;;;235.30;117.05;;;5.30;99.90;;;;;;4998300;28;20049;-56
2023/12/24 05:11:49;;;;;;;218.65;116.32;;;5.30;99.90;;;;;;4998357;28;20034;-56
2023/12/24 05:14:14;;;;;;;235.45;114.55;;;5.30;99.90;;;;;;4999546;28;20471;-56
2023/12/24 05:16:41;;;;;;;232.98;118.95;;;5.20;99.90;;;;;;4999273;28;20030;-56
2023/12/24 05:19:06;;;;;;;225.88;112.22;;;5.10;99.90;;;;;;4998133;28;20438;-56
2023/12/24 05:21:32;;;;;;;226.60;114.85;;;5.00;99.90;;;;;;4998098;28;20089;-56
2023/12/24 05:23:58;;;;;;;228.25;115.30;;;5.00;99.90;;;;;;4998133;28;20026;-56
2023/12/24 05:26:24;;;;;;;221.43;112.38;;;5.00;99.90;;;;;;4998105;28;20440;-56
2023/12/24 05:28:52;;;;;;;221.60;111.25;;;4.90;99.90;;;;;;4999193;28;20026;-56
2023/12/24 05:31:18;;;;;;;227.40;114.80;;;4.80;99.90;;;;;;4999208;28;20030;-56
2023/12/24 05:33:44;;;;;;;222.23;114.85;;;4.80;99.90;;;;;;4999101;28;20537;-56
2023/12/24 05:36:13;;;;;;;206.98;107.35;;;4.80;99.90;;;;;;4999197;28;20411;-56
2023/12/24 05:38:40;;;;;;;214.13;107.95;;;4.80;99.90;;;;;;4999026;28;20161;-56
2023/12/24 05:41:10;;;;;;;213.95;108.75;;;4.90;99.90;;;;;;4999071;28;20030;-56
2023/12/24 05:43:39;;;;;;;212.75;107.55;;;5.00;99.90;;;;;;4998938;28;20333;-56
2023/12/24 05:46:12;;;;;;;209.05;106.72;;;5.00;99.90;;;;;;4998858;28;20029;-56
2023/12/24 05:48:37;;;;;;;212.00;104.60;;;4.80;99.90;;;;;;4998947;28;20033;-56
2023/12/24 05:51:03;;;;;;;225.68;115.53;;;4.60;99.90;;;;;;4998902;28;20038;-56
2023/12/24 05:53:29;;;;;;;217.07;110.90;;;4.50;99.90;;;;;;4998978;28;20110;-56
2023/12/24 05:55:55;;;;;;;218.23;108.75;;;4.40;99.90;;;;;;5010916;28;20038;-56
2023/12/24 05:58:21;;;;;;;177.43;96.80;;;4.10;99.90;;;;;;5018139;28;20029;-56
2023/12/24 06:00:47;;;;;;;198.20;103.82;;;4.10;99.90;;;;;;5018193;28;20030;-56
2023/12/24 06:03:13;;;;;;;228.35;121.68;;;4.10;99.90;;;;;;5018197;28;20132;-56
2023/12/24 06:05:39;;;;;;;228.88;118.18;;;4.10;99.90;;;;;;5018177;28;20018;-56
2023/12/24 06:08:06;;;;;;;218.75;117.30;;;4.20;99.90;;;;;;5018009;28;20096;-56
2023/12/24 06:10:34;;;;;;;226.57;117.50;;;4.10;99.90;;;;;;5018022;28;20029;-56
2023/12/24 06:13:00;;;;;;;228.35;118.68;;;4.10;99.90;;;;;;5018004;28;20045;-56
2023/12/24 06:15:25;;;;;;;242.18;122.10;;;4.20;99.90;;;;;;5017083;28;20034;-56
2023/12/24 06:17:51;;;;;;;223.93;117.75;;;4.20;99.90;;;;;;5017284;28;20029;-56
2023/12/24 06:20:17;;;;;;;233.15;121.75;;;4.00;99.90;;;;;;5017894;28;20116;-56
2023/12/24 06:22:43;;;;;;;224.18;119.45;;;4.00;99.90;;;;;;5017825;28;20034;-56
2023/12/24 06:25:09;;;;;;;222.52;116.35;;;3.90;99.90;;;;;;5007307;28;20038;-56
2023/12/24 06:27:35;;;;;;;192.13;103.28;;;3.90;99.90;;;;;;4998081;28;20431;-56
2023/12/24 06:30:03;;;;;;;193.70;101.03;;;4.00;99.90;;;;;;4998260;28;20037;-56
2023/12/24 06:32:29;;;;;;;198.30;102.00;;;3.90;99.90;;;;;;4997979;28;20464;-56
2023/12/24 06:34:55;;;;;;;204.98;105.60;;;3.90;99.90;;;;;;4998097;28;20110;-56
2023/12/24 06:37:20;;;;;;;206.40;109.75;;;3.90;99.90;;;;;;4997700;28;20109;-56
2023/12/24 06:39:46;;;;;;;250.05;120.18;;;3.90;99.90;;;;;;4997869;28;20029;-56
2023/12/24 06:42:12;;;;;;;262.08;125.43;;;3.90;99.90;;;;;;4997876;28;20037;-56
2023/12/24 06:44:41;;;;;;;230.05;118.50;;;3.90;99.90;;;;;;4997683;28;20026;-56
2023/12/24 06:47:07;;;;;;;273.35;123.72;;;3.90;99.90;;;;;;4997741;28;20039;-56
2023/12/24 06:49:33;;;;;;;225.38;106.25;;;3.80;99.90;;;;;;4997711;28;20034;-56
2023/12/24 06:51:59;;;;;;;234.73;115.70;;;3.90;99.90;;;;;;4997644;28;20464;-56
2023/12/24 06:54:24;;;;;;;229.20;113.22;;;4.10;99.90;;;;;;4997473;28;20069;-56
2023/12/24 06:56:50;;;;;;;242.90;118.85;;;3.90;99.90;;;;;;4997401;28;20045;-56
2023/12/24 06:59:16;;;;;;;203.82;100.68;;;3.90;99.90;;;;;;4997513;28;20023;-56
2023/12/24 07:01:42;;;;;;;224.52;111.28;;;4.00;99.90;;;;;;4997788;28;20073;-56
2023/12/24 07:04:08;;;;;;;214.30;109.97;;;4.20;99.90;;;;;;4997447;28;20109;-56
2023/12/24 07:06:33;;;;;;;198.40;103.95;;;4.30;99.90;;;;;;4997155;28;20502;-56
2023/12/24 07:08:59;;;;;;;228.52;112.35;;;4.40;99.90;;;;;;4997366;28;20027;-56
2023/12/24 07:11:25;;;;;;;264.40;131.85;;;4.40;99.90;;;;;;4997346;28;20041;-56
2023/12/24 07:13:51;;;;;;;231.77;118.88;;;4.30;99.90;;;;;;4997267;28;20037;-56
2023/12/24 07:16:17;;;;;;;193.00;104.00;;;4.40;99.90;;;;;;4997052;28;20031;-56
2023/12/24 07:18:43;;;;;;;194.68;101.18;;;4.60;99.90;;;;;;4997150;28;20034;-56
2023/12/24 07:21:08;;;;;;;210.88;108.70;;;4.70;99.90;;;;;;4997203;28;20022;-56
2023/12/24 07:23:34;;;;;;;207.90;109.43;;;4.70;99.90;;;;;;4997113;28;20082;-56
2023/12/24 07:26:00;;;;;;;209.48;109.18;;;4.70;99.90;;;;;;4997090;28;20304;-56
2023/12/24 07:28:26;;;;;;;235.77;125.85;;;4.60;99.90;;;;;;4996666;28;20034;-56
2023/12/24 07:30:52;;;;;;;214.15;121.50;;;4.40;99.90;;;;;;4996989;28;20428;-56
2023/12/24 07:33:18;;;;;;;256.50;141.75;;;4.60;99.90;;;;;;4997040;28;20026;-56
2023/12/24 07:35:43;;;;;;;260.55;147.32;;;4.70;99.90;;;;;;4996955;28;20030;-56
2023/12/24 07:38:09;;;;;;;210.25;119.78;;;4.80;99.90;;;;;;4996810;28;20030;-56
2023/12/24 07:40:35;;;;;;;186.48;107.90;;;4.90;99.90;;;;;;4996707;28;20045;-56
2023/12/24 07:43:02;;;;;;;177.38;99.35;;;5.00;99.90;;;;;;4996726;28;20053;-56
2023/12/24 07:45:28;;;;;;;196.73;108.55;;;5.10;99.90;;;;;;4996747;28;20037;-56
2023/12/24 07:47:53;;;;;;;213.35;114.13;;;5.20;99.90;;;;;;4996899;28;20027;-56
2023/12/24 07:50:19;;;;;;;207.65;112.53;;;5.20;99.90;;;;;;4996836;28;20054;-56
2023/12/24 07:52:45;;;;;;;208.13;109.43;;;5.20;99.90;;;;;;4996801;28;20360;-56
2023/12/24 07:55:11;;;;;;;230.10;121.68;;;5.30;99.90;;;;;;5002613;28;20483;-56
2023/12/24 07:57:37;;;;;;;235.75;127.57;;;5.50;99.90;;;;;;5016107;28;20448;-56
2023/12/24 08:00:06;;;;;;;221.52;117.65;;;5.40;99.90;;;;;;5016296;28;20060;-56
2023/12/24 08:02:38;;;;;;;216.88;116.20;;;5.50;99.90;;;;;;5014951;28;20053;-57
2023/12/24 08:05:04;;;;;;;216.07;117.75;;;5.60;99.90;;;;;;5015954;28;20467;-56
2023/12/24 08:07:30;;;;;;;247.02;129.20;;;5.70;99.90;;;;;;5015761;28;20116;-56
2023/12/24 08:09:56;;;;;;;232.23;127.95;;;5.90;99.90;;;;;;5015864;28;20032;-57
2023/12/24 08:12:22;;;;;;;236.38;121.15;;;6.10;99.90;;;;;;5015853;28;20499;-56
2023/12/24 08:14:48;;;;;;;244.55;130.38;;;6.10;99.90;;;;;;5015855;28;20029;-56
2023/12/24 08:17:14;;;;;;;243.32;134.07;;;6.40;99.90;;;;;;5015147;28;20514;-56
2023/12/24 08:19:39;;;;;;;270.83;148.32;;;6.80;99.90;;;;;;5015780;28;20026;-56
2023/12/24 08:22:05;;;;;;;264.05;146.15;;;7.00;99.90;;;;;;5015782;28;20026;-56
2023/12/24 08:24:31;;;;;;;302.58;168.02;;;7.40;99.90;;;;;;5015660;28;20053;-56
2023/12/24 08:26:57;;;;;;;298.52;161.32;;;7.80;99.90;;;;;;5015714;28;20419;-57
2023/12/24 08:29:23;;;;;;;278.10;154.65;;;8.10;99.90;;;;;;5015630;28;20033;-57
2023/12/24 08:31:49;;;;;;;274.58;151.75;;;8.50;99.90;;;;;;5015639;28;20062;-57
2023/12/24 08:34:15;;;;;;;260.70;145.35;;;9.10;99.90;;;;;;5015500;28;20439;-57
2023/12/24 08:36:41;;;;;;;260.45;137.35;;;9.50;99.90;;;;;;5015552;28;20022;-56
2023/12/24 08:39:09;;;;;;;292.95;149.88;;;10.30;99.90;;;;;;5016045;28;20136;-57
2023/12/24 08:41:34;;;;;;;277.52;147.80;;;11.10;98.80;;;;;;5019817;28;20030;-57
2023/12/24 08:44:00;;;;;;;266.70;148.18;;;11.30;97.10;;;;;;5019607;28;20032;-57
2023/12/24 08:46:26;;;;;;;269.75;147.80;;;12.50;96.00;;;;;;5019434;28;20038;-57
2023/12/24 08:48:52;;;;;;;248.30;135.07;;;13.50;94.20;;;;;;5018281;28;20225;-57
2023/12/24 08:51:18;;;;;;;241.48;131.85;;;14.60;87.60;;;;;;5019553;28;20025;-57
2023/12/24 08:53:43;;;;;;;235.32;132.30;;;14.70;83.70;;;;;;5019399;28;20115;-57
2023/12/24 08:56:09;;;;;;;229.18;126.65;;;14.80;80.10;;;;;;5005091;28;20035;-57
2023/12/24 08:58:35;;;;;;;237.05;132.00;;;13.90;81.10;;;;;;4999929;28;20030;-57
2023/12/24 09:01:01;;;;;;;230.85;129.07;;;13.90;80.20;;;;;;4999815;28;20054;-57
2023/12/24 09:03:27;;;;;;;240.65;129.57;;;12.90;82.20;;;;;;4999626;28;20033;-57
2023/12/24 09:05:53;;;;;;;255.93;141.48;;;12.50;84.10;;;;;;4999744;28;20034;-57
2023/12/24 09:08:19;;;;;;;272.95;153.38;;;12.50;84.40;;;;;;4999454;28;20057;-57
2023/12/24 09:10:44;;;;;;;254.05;140.23;;;12.10;85.40;;;;;;4999615;28;20034;-57
2023/12/24 09:13:10;;;;;;;248.57;136.55;;;12.10;87.10;;;;;;4999515;28;20480;-57
2023/12/24 09:15:36;;;;;;;245.85;139.50;;;12.10;88.30;;;;;;4999654;28;20026;-57
2023/12/24 09:18:02;;;;;;;241.20;136.50;;;12.50;86.70;;;;;;4999219;28;20101;-57
2023/12/24 09:20:28;;;;;;;254.93;140.20;;;12.80;88.00;;;;;;4999410;28;20480;-57
2023/12/24 09:22:54;;;;;;;241.73;135.73;;;12.60;85.40;;;;;;4999364;28;20026;-57
2023/12/24 09:25:20;;;;;;;216.43;122.75;;;12.60;83.90;;;;;;4999219;28;20050;-57
2023/12/24 09:27:45;;;;;;;212.27;116.05;;;13.00;84.70;;;;;;4999415;28;20030;-57
2023/12/24 09:30:12;;;;;;;173.98;97.20;;;13.20;83.10;;;;;;4999305;28;20026;-57
2023/12/24 09:32:37;;;;;;;156.05;92.28;;;13.30;82.30;;;;;;4999128;28;20112;-57
2023/12/24 09:35:04;;;;;;;154.27;85.55;;;13.30;80.30;;;;;;4999226;28;20069;-57
2023/12/24 09:37:31;;;;;;;176.15;99.05;;;13.50;84.10;;;;;;4998880;28;20026;-57
2023/12/24 09:39:57;;;;;;;168.68;100.13;;;14.10;80.20;;;;;;4999001;28;20030;-57
2023/12/24 09:42:23;;;;;;;121.85;70.32;;;14.30;78.40;;;;;;4999001;28;20030;-57
2023/12/24 09:44:48;;;;;;;152.55;83.90;;;14.70;73.20;;;;;;4998996;28;20038;-57
2023/12/24 09:47:14;;;;;;;132.32;76.50;;;15.10;72.30;;;;;;4998772;28;20073;-57
2023/12/24 09:49:40;;;;;;;151.52;87.20;;;15.30;70.90;;;;;;4998785;28;20033;-57
2023/12/24 09:52:06;;;;;;;162.60;96.78;;;15.10;71.80;;;;;;4998729;28;20053;-57
2023/12/24 09:54:32;;;;;;;159.88;94.07;;;14.80;74.10;;;;;;4999889;28;20424;-57
2023/12/24 09:56:58;;;;;;;137.48;82.70;;;14.90;74.60;;;;;;5018357;28;20100;-57
2023/12/24 09:59:24;;;;;;;150.25;86.90;;;15.00;72.30;;;;;;5018304;28;20486;-57
2023/12/24 10:01:50;;;;;;;149.07;86.78;;;15.60;72.00;;;;;;5018168;28;20025;-57
2023/12/24 10:04:16;;;;;;;121.75;75.25;;;15.70;69.50;;;;;;5017010;28;20040;-57
2023/12/24 10:06:58;;;;;;;119.30;68.50;;;15.90;67.20;;;;;;5017902;28;20026;-57
2023/12/24 10:09:40;;;;;;;139.45;70.22;;;15.40;65.50;;;;;;5018390;28;20022;-57
2023/12/24 10:12:08;;;;;;;151.48;89.15;;;15.80;67.20;;;;;;5018093;28;20538;-57
2023/12/24 10:14:35;;;;;;;174.90;103.47;;;15.50;71.00;;;;;;5017991;28;20025;-57
2023/12/24 10:17:03;;;;;;;172.50;98.50;;;15.50;72.60;;;;;;5017625;28;20033;-57
2023/12/24 10:19:30;;;;;;;171.50;99.70;;;15.50;71.10;;;;;;5017942;28;20030;-57
2023/12/24 10:22:07;;;;;;;155.82;91.70;;;15.60;72.00;;;;;;5018007;28;20049;-57
2023/12/24 10:24:40;;;;;;;162.85;94.00;;;15.70;71.60;;;;;;5017835;28;20030;-57
2023/12/24 10:27:10;;;;;;;159.63;90.28;;;16.00;68.70;;;;;;5017949;28;20092;-57
2023/12/24 10:29:40;;;;;;;179.85;94.93;;;16.50;67.50;;;;;;5017766;28;20060;-57
2023/12/24 10:32:10;;;;;;;174.10;97.10;;;16.70;67.40;;;;;;5017693;28;20037;-57
2023/12/24 10:34:37;;;;;;;171.57;94.32;;;16.80;66.00;;;;;;5017659;28;20045;-57
2023/12/24 10:37:21;;;;;;;169.07;92.47;;;16.70;66.40;;;;;;5017652;28;20155;-57
2023/12/24 10:39:48;;;;;;;174.43;94.22;;;16.40;65.60;;;;;;5017501;28;20065;-57
2023/12/24 10:42:14;;;;;;;154.63;88.45;;;16.50;69.20;;;;;;5017578;28;20483;-57
2023/12/24 10:44:40;;;;;;;168.57;93.22;;;16.60;67.80;;;;;;5017422;28;20036;-57
2023/12/24 10:47:07;;;;;;;162.20;90.95;;;16.10;66.90;;;;;;5017323;28;20022;-57
2023/12/24 10:49:34;;;;;;;146.63;89.53;;;16.60;67.20;;;;;;5017216;28;20034;-57
2023/12/24 10:52:00;;;;;;;142.38;85.85;;;16.80;66.60;;;;;;5017382;28;20018;-57
2023/12/24 10:54:27;;;;;;;146.90;87.82;;;16.90;64.80;;;;;;5016946;28;20066;-57
2023/12/24 10:57:05;;;;;;;160.15;89.93;;;16.80;65.60;;;;;;4997512;28;20404;-57
2023/12/24 10:59:51;;;;;;;140.80;81.43;;;16.60;66.60;;;;;;4997592;28;20073;-57
2023/12/24 11:02:17;;;;;;;135.88;77.93;;;16.50;65.10;;;;;;4996921;28;20101;-57
2023/12/24 11:04:47;;;;;;;135.63;75.72;;;16.20;64.60;;;;;;4997438;28;20487;-57
2023/12/24 11:07:34;;;;;;;129.03;77.03;;;16.20;65.30;;;;;;4997211;28;20038;-57
2023/12/24 11:10:09;;;;;;;121.20;70.97;;;16.60;63.50;;;;;;4997357;28;20354;-57
2023/12/24 11:12:37;;;;;;;121.75;68.40;;;18.20;63.00;;;;;;4997304;28;20026;-58
2023/12/24 11:15:04;;;;;;;103.30;58.20;;;19.20;58.60;;;;;;4997264;28;20037;-58
2023/12/24 11:17:36;;;;;;;90.72;54.35;;;20.60;54.40;;;;;;4997015;28;20118;-58
2023/12/24 11:20:26;;;;;;;97.90;55.50;;;21.70;47.30;;;;;;4997207;28;20022;-58
2023/12/24 11:23:04;;;;;;;96.05;53.90;;;22.40;46.30;;;;;;4997150;28;20113;-58
2023/12/24 11:25:36;;;;;;;102.60;55.28;;;23.00;44.20;;;;;;4996850;28;20431;-58
2023/12/24 11:28:02;;;;;;;97.40;51.75;;;24.20;41.70;;;;;;4997062;28;20037;-58
2023/12/24 11:30:28;;;;;;;79.53;48.17;;;24.30;40.80;;;;;;4996928;28;20034;-58
2023/12/24 11:32:54;;;;;;;77.70;46.33;;;24.60;36.40;;;;;;4996848;28;20023;-58
2023/12/24 11:35:52;;;;;;;74.03;43.13;;;24.60;35.40;;;;;;4996904;28;20494;-58
2023/12/24 11:38:36;;;;;;;67.57;39.38;;;25.00;33.40;;;;;;4996599;28;20065;-58
2023/12/24 11:41:14;;;;;;;67.90;39.60;;;25.20;31.30;;;;;;4997024;28;20378;-58
2023/12/24 11:43:54;;;;;;;78.10;44.30;;;24.90;31.20;;;;;;4996737;28;20086;-58
2023/12/24 11:46:25;;;;;;;78.65;45.75;;;24.30;32.30;;;;;;4996690;28;20427;-58
2023/12/24 11:48:52;;;;;;;80.50;48.58;;;23.90;32.30;;;;;;4996715;28;20484;-58
2023/12/24 11:51:26;;;;;;;76.75;48.03;;;23.50;34.10;;;;;;4996714;28;20027;-58
2023/12/24 11:54:06;;;;;;;87.75;53.70;;;23.40;34.50;;;;;;4996567;28;20045;-58
2023/12/24 11:56:32;;;;;;;99.13;51.55;;;23.40;34.50;;;;;;5013679;28;20092;-58
2023/12/24 11:59:02;;;;;;;97.80;54.42;;;23.10;35.30;;;;;;5016302;28;20037;-58
2023/12/24 12:01:31;;;;;;;90.50;52.85;;;23.00;34.90;;;;;;5016423;28;20025;-58
2023/12/24 12:03:59;;;;;;;85.38;51.00;;;23.50;33.40;;;;;;5016013;28;20037;-58
2023/12/24 12:06:29;;;;;;;96.55;56.45;;;23.70;32.40;;;;;;5015780;28;20037;-58
2023/12/24 12:08:56;;;;;;;87.82;53.67;;;23.30;33.90;;;;;;5015973;28;20364;-58
2023/12/24 12:11:22;;;;;;;99.55;56.30;;;23.30;33.60;;;;;;5015936;28;20040;-58
2023/12/24 12:13:48;;;;;;;91.90;52.53;;;22.80;33.20;;;;;;5015827;28;20065;-58
2023/12/24 12:16:14;;;;;;;86.95;53.00;;;22.60;35.40;;;;;;5015776;28;20096;-58
2023/12/24 12:18:40;;;;;;;89.47;52.38;;;22.80;33.20;;;;;;5015745;28;20029;-58